sensor_id;sensor_type;location;lat;lon;timestamp;pressure;altitude;pressure_sealevel;temperature;humidity
49813;BME280;35706;52.100;5.056;2022-08-19T00:00:36;101393.28;;;22.31;65.88
49813;BME280;35706;52.100;5.056;2022-08-19T00:03:02;101399.31;;;21.70;68.00
49813;BME280;35706;52.100;5.056;2022-08-19T00:05:28;101392.13;;;21.43;68.62
49813;BME280;35706;52.100;5.056;2022-08-19T00:07:53;101393.22;;;21.48;68.43
49813;BME280;35706;52.100;5.056;2022-08-19T00:10:20;101392.66;;;21.60;68.25
49813;BME280;35706;52.100;5.056;2022-08-19T00:12:45;101395.25;;;21.81;67.83
49813;BME280;35706;52.100;5.056;2022-08-19T00:15:13;101404.88;;;22.10;67.08
49813;BME280;35706;52.100;5.056;2022-08-19T00:17:40;101400.56;;;22.16;66.38
49813;BME280;35706;52.100;5.056;2022-08-19T00:20:07;101407.78;;;22.15;66.22
49813;BME280;35706;52.100;5.056;2022-08-19T00:22:33;101411.66;;;22.06;66.76
49813;BME280;35706;52.100;5.056;2022-08-19T00:24:58;101408.69;;;21.94;67.22
49813;BME280;35706;52.100;5.056;2022-08-19T00:27:23;101402.38;;;22.02;66.78
49813;BME280;35706;52.100;5.056;2022-08-19T00:29:49;101395.94;;;21.96;66.97
49813;BME280;35706;52.100;5.056;2022-08-19T00:32:14;101402.75;;;21.99;67.25
49813;BME280;35706;52.100;5.056;2022-08-19T00:34:39;101391.63;;;21.95;66.69
49813;BME280;35706;52.100;5.056;2022-08-19T00:37:05;101388.06;;;21.88;66.81
49813;BME280;35706;52.100;5.056;2022-08-19T00:39:30;101394.81;;;21.78;67.10
49813;BME280;35706;52.100;5.056;2022-08-19T00:41:55;101401.88;;;21.07;69.44
49813;BME280;35706;52.100;5.056;2022-08-19T00:44:25;101397.47;;;20.78;70.99
49813;BME280;35706;52.100;5.056;2022-08-19T00:46:52;101386.25;;;21.32;68.72
49813;BME280;35706;52.100;5.056;2022-08-19T00:49:21;101372.72;;;21.62;67.89
49813;BME280;35706;52.100;5.056;2022-08-19T00:51:51;101378.66;;;21.58;68.08
49813;BME280;35706;52.100;5.056;2022-08-19T00:54:19;101394.81;;;21.43;68.74
49813;BME280;35706;52.100;5.056;2022-08-19T00:56:45;101395.34;;;21.60;67.71
49813;BME280;35706;52.100;5.056;2022-08-19T00:59:12;101391.88;;;21.66;67.84
49813;BME280;35706;52.100;5.056;2022-08-19T01:01:41;101383.59;;;21.61;68.26
49813;BME280;35706;52.100;5.056;2022-08-19T01:04:07;101392.84;;;21.58;68.04
49813;BME280;35706;52.100;5.056;2022-08-19T01:06:35;101398.16;;;21.30;69.40
49813;BME280;35706;52.100;5.056;2022-08-19T01:09:01;101394.41;;;21.24;69.58
49813;BME280;35706;52.100;5.056;2022-08-19T01:11:27;101394.13;;;21.41;68.43
49813;BME280;35706;52.100;5.056;2022-08-19T01:13:54;101397.44;;;21.14;69.49
49813;BME280;35706;52.100;5.056;2022-08-19T01:16:21;101402.69;;;21.08;69.54
49813;BME280;35706;52.100;5.056;2022-08-19T01:18:48;101383.84;;;21.16;69.80
49813;BME280;35706;52.100;5.056;2022-08-19T01:21:23;101392.28;;;21.13;69.35
49813;BME280;35706;52.100;5.056;2022-08-19T01:23:50;101391.72;;;20.96;69.97
49813;BME280;35706;52.100;5.056;2022-08-19T01:26:19;101383.75;;;20.45;71.97
49813;BME280;35706;52.100;5.056;2022-08-19T01:28:46;101385.50;;;20.38;71.89
49813;BME280;35706;52.100;5.056;2022-08-19T01:31:16;101388.00;;;20.76;71.03
49813;BME280;35706;52.100;5.056;2022-08-19T01:33:41;101388.53;;;20.64;71.28
49813;BME280;35706;52.100;5.056;2022-08-19T01:36:13;101397.16;;;20.15;73.02
49813;BME280;35706;52.100;5.056;2022-08-19T01:38:41;101403.41;;;20.07;73.32
49813;BME280;35706;52.100;5.056;2022-08-19T01:41:09;101398.31;;;20.27;72.89
49813;BME280;35706;52.100;5.056;2022-08-19T01:43:34;101403.44;;;20.59;71.81
49813;BME280;35706;52.100;5.056;2022-08-19T01:46:00;101406.19;;;20.65;71.58
49813;BME280;35706;52.100;5.056;2022-08-19T01:48:26;101402.00;;;20.99;70.28
49813;BME280;35706;52.100;5.056;2022-08-19T01:50:51;101398.06;;;20.95;70.43
49813;BME280;35706;52.100;5.056;2022-08-19T01:53:17;101404.03;;;20.76;71.38
49813;BME280;35706;52.100;5.056;2022-08-19T01:55:43;101394.28;;;20.68;71.43
49813;BME280;35706;52.100;5.056;2022-08-19T01:58:19;101398.81;;;20.67;71.59
49813;BME280;35706;52.100;5.056;2022-08-19T02:00:46;101397.69;;;20.98;70.53
49813;BME280;35706;52.100;5.056;2022-08-19T02:03:30;101403.97;;;20.90;71.30
49813;BME280;35706;52.100;5.056;2022-08-19T02:06:16;101403.91;;;21.05;70.76
49813;BME280;35706;52.100;5.056;2022-08-19T02:09:03;101401.50;;;21.10;70.38
49813;BME280;35706;52.100;5.056;2022-08-19T02:11:49;101406.06;;;20.95;70.73
49813;BME280;35706;52.100;5.056;2022-08-19T02:14:36;101406.13;;;21.02;70.93
49813;BME280;35706;52.100;5.056;2022-08-19T02:17:21;101407.66;;;20.53;72.91
49813;BME280;35706;52.100;5.056;2022-08-19T02:20:08;101406.00;;;20.52;73.19
49813;BME280;35706;52.100;5.056;2022-08-19T02:22:54;101413.25;;;20.37;74.04
49813;BME280;35706;52.100;5.056;2022-08-19T02:25:41;101405.69;;;20.25;74.41
49813;BME280;35706;52.100;5.056;2022-08-19T02:28:27;101402.66;;;20.28;74.18
49813;BME280;35706;52.100;5.056;2022-08-19T02:31:16;101399.94;;;20.58;72.91
49813;BME280;35706;52.100;5.056;2022-08-19T02:34:02;101411.56;;;20.36;73.52
49813;BME280;35706;52.100;5.056;2022-08-19T02:36:48;101408.13;;;19.90;75.46
49813;BME280;35706;52.100;5.056;2022-08-19T02:39:33;101398.34;;;20.12;74.61
49813;BME280;35706;52.100;5.056;2022-08-19T02:42:19;101397.53;;;20.48;73.36
49813;BME280;35706;52.100;5.056;2022-08-19T02:45:05;101393.31;;;20.54;73.10
49813;BME280;35706;52.100;5.056;2022-08-19T02:47:51;101404.56;;;20.49;73.26
49813;BME280;35706;52.100;5.056;2022-08-19T02:50:39;101405.19;;;20.66;72.74
49813;BME280;35706;52.100;5.056;2022-08-19T02:53:27;101394.75;;;20.71;72.67
49813;BME280;35706;52.100;5.056;2022-08-19T02:56:13;101390.63;;;20.90;71.72
49813;BME280;35706;52.100;5.056;2022-08-19T02:58:58;101386.63;;;20.80;72.07
49813;BME280;35706;52.100;5.056;2022-08-19T03:01:45;101381.78;;;20.68;72.62
49813;BME280;35706;52.100;5.056;2022-08-19T03:04:30;101389.75;;;20.83;71.78
49813;BME280;35706;52.100;5.056;2022-08-19T03:07:17;101389.34;;;20.65;72.66
49813;BME280;35706;52.100;5.056;2022-08-19T03:10:04;101394.63;;;20.43;73.55
49813;BME280;35706;52.100;5.056;2022-08-19T03:12:50;101388.53;;;20.49;73.11
49813;BME280;35706;52.100;5.056;2022-08-19T03:15:39;101386.22;;;20.61;72.98
49813;BME280;35706;52.100;5.056;2022-08-19T03:18:25;101383.94;;;20.58;73.01
49813;BME280;35706;52.100;5.056;2022-08-19T03:21:24;101378.91;;;20.70;72.67
49813;BME280;35706;52.100;5.056;2022-08-19T03:24:11;101375.41;;;20.69;72.40
49813;BME280;35706;52.100;5.056;2022-08-19T03:26:58;101370.41;;;20.60;72.73
49813;BME280;35706;52.100;5.056;2022-08-19T03:29:43;101371.09;;;20.68;72.61
49813;BME280;35706;52.100;5.056;2022-08-19T03:32:30;101372.50;;;20.64;72.27
49813;BME280;35706;52.100;5.056;2022-08-19T03:35:15;101366.38;;;20.92;71.34
49813;BME280;35706;52.100;5.056;2022-08-19T03:38:01;101366.41;;;20.70;72.06
49813;BME280;35706;52.100;5.056;2022-08-19T03:40:47;101364.28;;;20.66;72.28
49813;BME280;35706;52.100;5.056;2022-08-19T03:43:36;101362.22;;;20.68;72.20
49813;BME280;35706;52.100;5.056;2022-08-19T03:46:28;101377.38;;;20.46;73.41
49813;BME280;35706;52.100;5.056;2022-08-19T03:49:15;101371.72;;;20.70;71.75
49813;BME280;35706;52.100;5.056;2022-08-19T03:52:01;101378.59;;;20.43;73.01
49813;BME280;35706;52.100;5.056;2022-08-19T03:54:47;101378.53;;;20.37;73.68
49813;BME280;35706;52.100;5.056;2022-08-19T03:57:33;101384.50;;;20.39;73.44
49813;BME280;35706;52.100;5.056;2022-08-19T04:00:20;101375.31;;;20.26;74.35
49813;BME280;35706;52.100;5.056;2022-08-19T04:03:05;101381.16;;;20.15;74.31
49813;BME280;35706;52.100;5.056;2022-08-19T04:05:51;101385.38;;;20.09;74.74
49813;BME280;35706;52.100;5.056;2022-08-19T04:08:36;101386.66;;;20.13;74.40
49813;BME280;35706;52.100;5.056;2022-08-19T04:11:25;101391.63;;;20.17;74.57
49813;BME280;35706;52.100;5.056;2022-08-19T04:14:14;101379.19;;;20.24;74.59
49813;BME280;35706;52.100;5.056;2022-08-19T04:17:01;101370.72;;;20.20;74.40
49813;BME280;35706;52.100;5.056;2022-08-19T04:19:47;101364.94;;;20.02;75.45
49813;BME280;35706;52.100;5.056;2022-08-19T04:22:32;101370.94;;;20.04;75.25
49813;BME280;35706;52.100;5.056;2022-08-19T04:25:18;101370.19;;;20.10;74.90
49813;BME280;35706;52.100;5.056;2022-08-19T04:28:04;101373.78;;;20.17;74.08
49813;BME280;35706;52.100;5.056;2022-08-19T04:30:53;101369.63;;;20.00;75.50
49813;BME280;35706;52.100;5.056;2022-08-19T04:33:39;101377.38;;;19.95;75.45
49813;BME280;35706;52.100;5.056;2022-08-19T04:36:31;101373.91;;;19.79;76.66
49813;BME280;35706;52.100;5.056;2022-08-19T04:39:21;101380.59;;;19.22;78.49
49813;BME280;35706;52.100;5.056;2022-08-19T04:42:08;101394.69;;;19.31;78.31
49813;BME280;35706;52.100;5.056;2022-08-19T04:45:13;101382.84;;;19.10;79.59
49813;BME280;35706;52.100;5.056;2022-08-19T04:47:59;101389.53;;;19.44;78.59
49813;BME280;35706;52.100;5.056;2022-08-19T04:50:47;101386.78;;;19.38;78.42
49813;BME280;35706;52.100;5.056;2022-08-19T04:53:35;101386.50;;;19.32;78.59
49813;BME280;35706;52.100;5.056;2022-08-19T04:56:22;101392.59;;;19.41;78.29
49813;BME280;35706;52.100;5.056;2022-08-19T04:59:08;101397.06;;;19.41;78.66
49813;BME280;35706;52.100;5.056;2022-08-19T05:01:53;101392.59;;;19.41;78.50
49813;BME280;35706;52.100;5.056;2022-08-19T05:04:39;101389.63;;;19.36;78.73
49813;BME280;35706;52.100;5.056;2022-08-19T05:07:25;101402.13;;;19.36;79.06
49813;BME280;35706;52.100;5.056;2022-08-19T05:10:11;101419.44;;;19.17;79.45
49813;BME280;35706;52.100;5.056;2022-08-19T05:12:57;101423.13;;;19.16;80.01
49813;BME280;35706;52.100;5.056;2022-08-19T05:15:44;101417.75;;;18.69;81.75
49813;BME280;35706;52.100;5.056;2022-08-19T05:18:39;101419.22;;;19.03;80.90
49813;BME280;35706;52.100;5.056;2022-08-19T05:21:44;101411.81;;;18.90;80.86
49813;BME280;35706;52.100;5.056;2022-08-19T05:24:48;101407.47;;;19.12;80.61
49813;BME280;35706;52.100;5.056;2022-08-19T05:27:34;101417.47;;;18.87;81.34
49813;BME280;35706;52.100;5.056;2022-08-19T05:30:20;101413.13;;;18.95;81.40
49813;BME280;35706;52.100;5.056;2022-08-19T05:33:07;101411.03;;;18.82;82.45
49813;BME280;35706;52.100;5.056;2022-08-19T05:35:57;101401.53;;;19.25;80.25
49813;BME280;35706;52.100;5.056;2022-08-19T05:38:42;101414.09;;;18.94;81.54
49813;BME280;35706;52.100;5.056;2022-08-19T05:41:28;101405.63;;;18.90;82.14
49813;BME280;35706;52.100;5.056;2022-08-19T05:44:15;101405.88;;;19.26;80.46
49813;BME280;35706;52.100;5.056;2022-08-19T05:47:04;101405.78;;;18.97;81.84
49813;BME280;35706;52.100;5.056;2022-08-19T05:49:51;101409.00;;;19.07;81.69
49813;BME280;35706;52.100;5.056;2022-08-19T05:52:37;101400.91;;;19.00;81.94
49813;BME280;35706;52.100;5.056;2022-08-19T05:55:23;101402.91;;;18.98;81.53
49813;BME280;35706;52.100;5.056;2022-08-19T05:58:09;101407.91;;;19.01;81.63
49813;BME280;35706;52.100;5.056;2022-08-19T06:00:55;101406.19;;;19.08;81.54
49813;BME280;35706;52.100;5.056;2022-08-19T06:03:41;101407.19;;;19.07;81.50
49813;BME280;35706;52.100;5.056;2022-08-19T06:06:27;101414.47;;;18.90;82.69
49813;BME280;35706;52.100;5.056;2022-08-19T06:09:13;101414.00;;;19.10;82.09
49813;BME280;35706;52.100;5.056;2022-08-19T06:11:59;101406.59;;;18.97;82.74
49813;BME280;35706;52.100;5.056;2022-08-19T06:14:45;101400.38;;;19.05;82.04
49813;BME280;35706;52.100;5.056;2022-08-19T06:17:31;101407.25;;;19.22;81.65
49813;BME280;35706;52.100;5.056;2022-08-19T06:20:16;101407.25;;;19.22;81.28
49813;BME280;35706;52.100;5.056;2022-08-19T06:23:03;101403.66;;;19.30;81.65
49813;BME280;35706;52.100;5.056;2022-08-19T06:25:49;101408.56;;;19.03;82.53
49813;BME280;35706;52.100;5.056;2022-08-19T06:28:34;101399.16;;;18.92;83.29
49813;BME280;35706;52.100;5.056;2022-08-19T06:31:23;101398.78;;;18.96;83.63
49813;BME280;35706;52.100;5.056;2022-08-19T06:34:09;101403.34;;;19.10;83.11
49813;BME280;35706;52.100;5.056;2022-08-19T06:36:56;101400.13;;;19.15;82.98
49813;BME280;35706;52.100;5.056;2022-08-19T06:39:43;101399.38;;;19.44;81.90
49813;BME280;35706;52.100;5.056;2022-08-19T06:42:29;101401.16;;;19.51;81.50
49813;BME280;35706;52.100;5.056;2022-08-19T06:45:16;101405.91;;;19.41;82.00
49813;BME280;35706;52.100;5.056;2022-08-19T06:48:02;101401.34;;;19.50;80.85
49813;BME280;35706;52.100;5.056;2022-08-19T06:50:48;101405.84;;;19.11;82.46
49813;BME280;35706;52.100;5.056;2022-08-19T06:53:36;101409.31;;;19.35;81.98
49813;BME280;35706;52.100;5.056;2022-08-19T06:56:28;101417.38;;;19.04;83.57
49813;BME280;35706;52.100;5.056;2022-08-19T06:59:21;101428.09;;;19.19;82.56
49813;BME280;35706;52.100;5.056;2022-08-19T07:02:08;101417.44;;;19.19;82.75
49813;BME280;35706;52.100;5.056;2022-08-19T07:04:53;101410.13;;;19.36;82.21
49813;BME280;35706;52.100;5.056;2022-08-19T07:07:41;101423.50;;;19.27;82.63
49813;BME280;35706;52.100;5.056;2022-08-19T07:10:28;101428.63;;;19.37;82.97
49813;BME280;35706;52.100;5.056;2022-08-19T07:13:20;101428.50;;;19.30;83.10
49813;BME280;35706;52.100;5.056;2022-08-19T07:16:07;101423.69;;;19.26;82.87
49813;BME280;35706;52.100;5.056;2022-08-19T07:18:53;101425.03;;;19.45;82.53
49813;BME280;35706;52.100;5.056;2022-08-19T07:21:39;101434.63;;;19.54;82.11
49813;BME280;35706;52.100;5.056;2022-08-19T07:24:26;101436.38;;;19.62;81.53
49813;BME280;35706;52.100;5.056;2022-08-19T07:27:13;101434.34;;;19.64;81.23
49813;BME280;35706;52.100;5.056;2022-08-19T07:29:59;101439.16;;;19.68;81.01
49813;BME280;35706;52.100;5.056;2022-08-19T07:32:45;101431.97;;;19.54;81.88
49813;BME280;35706;52.100;5.056;2022-08-19T07:35:31;101445.69;;;19.43;82.12
49813;BME280;35706;52.100;5.056;2022-08-19T07:38:17;101438.03;;;19.63;81.61
49813;BME280;35706;52.100;5.056;2022-08-19T07:41:03;101436.88;;;19.42;82.83
49813;BME280;35706;52.100;5.056;2022-08-19T07:43:49;101439.38;;;19.82;80.88
49813;BME280;35706;52.100;5.056;2022-08-19T07:46:37;101431.47;;;19.73;81.47
49813;BME280;35706;52.100;5.056;2022-08-19T07:49:23;101442.06;;;19.59;82.31
49813;BME280;35706;52.100;5.056;2022-08-19T07:52:09;101446.50;;;19.66;81.95
49813;BME280;35706;52.100;5.056;2022-08-19T07:54:55;101450.72;;;19.84;81.46
49813;BME280;35706;52.100;5.056;2022-08-19T07:57:41;101449.75;;;19.77;81.69
49813;BME280;35706;52.100;5.056;2022-08-19T08:00:14;101444.72;;;19.82;81.78
49813;BME280;35706;52.100;5.056;2022-08-19T08:02:39;101450.31;;;19.87;81.53
49813;BME280;35706;52.100;5.056;2022-08-19T08:05:07;101451.72;;;19.98;80.45
49813;BME280;35706;52.100;5.056;2022-08-19T08:07:51;101452.44;;;19.91;81.06
49813;BME280;35706;52.100;5.056;2022-08-19T08:10:35;101455.84;;;19.85;81.28
49813;BME280;35706;52.100;5.056;2022-08-19T08:13:00;101455.00;;;19.85;82.03
49813;BME280;35706;52.100;5.056;2022-08-19T08:15:26;101461.22;;;20.00;81.07
49813;BME280;35706;52.100;5.056;2022-08-19T08:17:51;101456.88;;;20.14;80.91
49813;BME280;35706;52.100;5.056;2022-08-19T08:20:17;101467.28;;;20.39;79.64
49813;BME280;35706;52.100;5.056;2022-08-19T08:22:44;101468.00;;;20.47;79.29
49813;BME280;35706;52.100;5.056;2022-08-19T08:25:29;101458.97;;;20.33;79.71
49813;BME280;35706;52.100;5.056;2022-08-19T08:27:56;101458.34;;;20.31;79.81
49813;BME280;35706;52.100;5.056;2022-08-19T08:30:23;101454.75;;;20.24;80.29
49813;BME280;35706;52.100;5.056;2022-08-19T08:32:50;101461.75;;;20.25;80.57
49813;BME280;35706;52.100;5.056;2022-08-19T08:35:18;101458.81;;;20.35;79.86
49813;BME280;35706;52.100;5.056;2022-08-19T08:37:45;101464.50;;;20.47;78.92
49813;BME280;35706;52.100;5.056;2022-08-19T08:40:22;101465.16;;;20.19;79.74
49813;BME280;35706;52.100;5.056;2022-08-19T08:42:58;101468.09;;;20.39;79.17
49813;BME280;35706;52.100;5.056;2022-08-19T08:45:28;101467.69;;;20.57;78.81
49813;BME280;35706;52.100;5.056;2022-08-19T08:47:55;101472.38;;;20.70;78.26
49813;BME280;35706;52.100;5.056;2022-08-19T08:50:29;101474.53;;;20.74;77.60
49813;BME280;35706;52.100;5.056;2022-08-19T08:52:58;101473.88;;;20.72;78.14
49813;BME280;35706;52.100;5.056;2022-08-19T08:55:27;101479.13;;;20.81;77.76
49813;BME280;35706;52.100;5.056;2022-08-19T08:57:59;101472.09;;;20.80;78.04
49813;BME280;35706;52.100;5.056;2022-08-19T09:00:34;101481.91;;;20.72;78.49
49813;BME280;35706;52.100;5.056;2022-08-19T09:03:01;101476.06;;;20.84;77.66
49813;BME280;35706;52.100;5.056;2022-08-19T09:05:39;101465.63;;;20.89;78.35
49813;BME280;35706;52.100;5.056;2022-08-19T09:08:24;101469.28;;;20.66;78.43
49813;BME280;35706;52.100;5.056;2022-08-19T09:10:54;101472.78;;;20.67;78.99
49813;BME280;35706;52.100;5.056;2022-08-19T09:16:06;101468.97;;;20.76;79.52
49813;BME280;35706;52.100;5.056;2022-08-19T09:18:49;101467.34;;;20.97;78.33
49813;BME280;35706;52.100;5.056;2022-08-19T09:21:18;101469.56;;;20.93;78.29
49813;BME280;35706;52.100;5.056;2022-08-19T09:23:45;101474.44;;;21.26;77.23
49813;BME280;35706;52.100;5.056;2022-08-19T09:26:14;101482.38;;;21.41;76.43
49813;BME280;35706;52.100;5.056;2022-08-19T09:28:41;101492.63;;;21.37;76.55
49813;BME280;35706;52.100;5.056;2022-08-19T09:31:13;101472.63;;;21.33;76.40
49813;BME280;35706;52.100;5.056;2022-08-19T09:33:39;101477.16;;;21.32;76.06
49813;BME280;35706;52.100;5.056;2022-08-19T09:36:07;101473.09;;;21.58;75.47
49813;BME280;35706;52.100;5.056;2022-08-19T09:38:34;101474.91;;;21.79;75.45
49813;BME280;35706;52.100;5.056;2022-08-19T09:41:13;101484.09;;;21.70;75.54
49813;BME280;35706;52.100;5.056;2022-08-19T09:43:40;101482.97;;;21.58;75.47
49813;BME280;35706;52.100;5.056;2022-08-19T09:46:08;101480.16;;;21.66;75.33
49813;BME280;35706;52.100;5.056;2022-08-19T09:48:35;101469.84;;;21.63;76.59
49813;BME280;35706;52.100;5.056;2022-08-19T09:51:03;101475.59;;;21.60;75.97
49813;BME280;35706;52.100;5.056;2022-08-19T09:53:29;101486.50;;;21.65;75.95
49813;BME280;35706;52.100;5.056;2022-08-19T09:55:55;101472.00;;;21.74;75.76
49813;BME280;35706;52.100;5.056;2022-08-19T09:58:20;101484.13;;;22.05;74.59
49813;BME280;35706;52.100;5.056;2022-08-19T10:00:45;101478.03;;;22.17;71.95
49813;BME280;35706;52.100;5.056;2022-08-19T10:03:11;101480.59;;;22.32;70.74
49813;BME280;35706;52.100;5.056;2022-08-19T10:05:36;101481.84;;;22.36;71.92
49813;BME280;35706;52.100;5.056;2022-08-19T10:08:24;101472.69;;;22.52;70.97
49813;BME280;35706;52.100;5.056;2022-08-19T10:10:54;101465.69;;;22.65;70.09
49813;BME280;35706;52.100;5.056;2022-08-19T10:13:21;101467.63;;;22.84;68.93
49813;BME280;35706;52.100;5.056;2022-08-19T10:15:49;101468.28;;;23.00;68.08
49813;BME280;35706;52.100;5.056;2022-08-19T10:18:16;101473.69;;;23.06;68.39
49813;BME280;35706;52.100;5.056;2022-08-19T10:20:43;101475.03;;;22.75;66.74
49813;BME280;35706;52.100;5.056;2022-08-19T10:23:08;101464.59;;;23.01;66.95
49813;BME280;35706;52.100;5.056;2022-08-19T10:25:33;101471.00;;;23.06;65.87
49813;BME280;35706;52.100;5.056;2022-08-19T10:27:59;101464.19;;;23.10;65.97
49813;BME280;35706;52.100;5.056;2022-08-19T10:30:25;101468.13;;;23.21;65.15
49813;BME280;35706;52.100;5.056;2022-08-19T10:32:50;101468.75;;;23.16;66.11
49813;BME280;35706;52.100;5.056;2022-08-19T10:35:16;101465.66;;;23.40;65.24
49813;BME280;35706;52.100;5.056;2022-08-19T10:37:42;101477.03;;;23.35;66.04
49813;BME280;35706;52.100;5.056;2022-08-19T10:40:08;101465.44;;;23.34;66.02
49813;BME280;35706;52.100;5.056;2022-08-19T10:42:35;101467.53;;;23.59;63.87
49813;BME280;35706;52.100;5.056;2022-08-19T10:45:02;101462.34;;;23.51;64.01
49813;BME280;35706;52.100;5.056;2022-08-19T10:47:28;101467.34;;;23.54;64.66
49813;BME280;35706;52.100;5.056;2022-08-19T10:49:54;101463.63;;;23.35;65.25
49813;BME280;35706;52.100;5.056;2022-08-19T10:52:43;101458.44;;;23.40;65.34
49813;BME280;35706;52.100;5.056;2022-08-19T10:55:12;101458.44;;;23.40;65.32
49813;BME280;35706;52.100;5.056;2022-08-19T10:57:56;101459.88;;;23.29;66.25
49813;BME280;35706;52.100;5.056;2022-08-19T11:00:23;101462.16;;;23.39;65.65
49813;BME280;35706;52.100;5.056;2022-08-19T11:02:49;101460.50;;;23.38;65.24
49813;BME280;35706;52.100;5.056;2022-08-19T11:05:14;101470.41;;;23.24;65.99
49813;BME280;35706;52.100;5.056;2022-08-19T11:07:41;101464.00;;;23.12;66.87
49813;BME280;35706;52.100;5.056;2022-08-19T11:10:09;101460.91;;;23.15;66.71
49813;BME280;35706;52.100;5.056;2022-08-19T11:12:37;101455.16;;;23.25;66.69
49813;BME280;35706;52.100;5.056;2022-08-19T11:15:05;101457.41;;;23.21;66.74
49813;BME280;35706;52.100;5.056;2022-08-19T11:19:56;101454.72;;;23.08;67.72
49813;BME280;35706;52.100;5.056;2022-08-19T11:22:22;101460.06;;;23.14;67.35
49813;BME280;35706;52.100;5.056;2022-08-19T11:24:47;101460.91;;;23.22;66.73
49813;BME280;35706;52.100;5.056;2022-08-19T11:27:12;101468.31;;;23.06;67.39
49813;BME280;35706;52.100;5.056;2022-08-19T11:29:39;101470.38;;;23.04;68.24
49813;BME280;35706;52.100;5.056;2022-08-19T11:32:07;101463.72;;;23.00;68.22
49813;BME280;35706;52.100;5.056;2022-08-19T11:34:39;101461.47;;;22.97;68.90
49813;BME280;35706;52.100;5.056;2022-08-19T11:37:05;101476.28;;;22.80;70.08
49813;BME280;35706;52.100;5.056;2022-08-19T11:39:33;101465.16;;;22.96;69.47
49813;BME280;35706;52.100;5.056;2022-08-19T11:41:59;101464.34;;;22.95;69.68
49813;BME280;35706;52.100;5.056;2022-08-19T11:44:26;101455.47;;;22.88;70.00
49813;BME280;35706;52.100;5.056;2022-08-19T11:46:51;101468.44;;;22.85;69.43
49813;BME280;35706;52.100;5.056;2022-08-19T11:49:19;101463.09;;;22.85;69.83
49813;BME280;35706;52.100;5.056;2022-08-19T11:51:45;101463.91;;;22.92;69.56
49813;BME280;35706;52.100;5.056;2022-08-19T11:54:13;101472.88;;;23.12;68.08
49813;BME280;35706;52.100;5.056;2022-08-19T11:56:40;101469.16;;;23.27;68.25
49813;BME280;35706;52.100;5.056;2022-08-19T11:59:05;101472.25;;;23.30;68.29
49813;BME280;35706;52.100;5.056;2022-08-19T12:01:32;101475.34;;;23.41;68.17
49813;BME280;35706;52.100;5.056;2022-08-19T12:03:58;101470.41;;;23.31;67.26
49813;BME280;35706;52.100;5.056;2022-08-19T12:06:26;101469.56;;;23.30;67.24
49813;BME280;35706;52.100;5.056;2022-08-19T12:08:54;101473.28;;;23.16;67.53
49813;BME280;35706;52.100;5.056;2022-08-19T12:11:20;101466.88;;;23.17;68.17
49813;BME280;35706;52.100;5.056;2022-08-19T12:13:45;101466.88;;;23.17;67.72
49813;BME280;35706;52.100;5.056;2022-08-19T12:16:20;101468.53;;;23.18;68.53
49813;BME280;35706;52.100;5.056;2022-08-19T12:18:46;101473.69;;;23.20;68.28
49813;BME280;35706;52.100;5.056;2022-08-19T12:21:12;101472.88;;;23.19;68.08
49813;BME280;35706;52.100;5.056;2022-08-19T12:23:40;101465.88;;;23.25;67.74
49813;BME280;35706;52.100;5.056;2022-08-19T12:26:05;101474.34;;;23.35;68.21
49813;BME280;35706;52.100;5.056;2022-08-19T12:28:31;101474.16;;;23.43;66.47
49813;BME280;35706;52.100;5.056;2022-08-19T12:30:56;101469.59;;;23.44;66.77
49813;BME280;35706;52.100;5.056;2022-08-19T12:33:23;101471.47;;;23.43;65.98
49813;BME280;35706;52.100;5.056;2022-08-19T12:35:51;101457.81;;;23.38;66.73
49813;BME280;35706;52.100;5.056;2022-08-19T12:38:17;101462.56;;;23.36;67.25
49813;BME280;35706;52.100;5.056;2022-08-19T12:40:46;101460.94;;;23.35;68.05
49813;BME280;35706;52.100;5.056;2022-08-19T12:43:12;101455.97;;;23.25;67.85
49813;BME280;35706;52.100;5.056;2022-08-19T12:45:38;101453.91;;;23.27;68.18
49813;BME280;35706;52.100;5.056;2022-08-19T12:50:29;101460.31;;;23.46;67.79
49813;BME280;35706;52.100;5.056;2022-08-19T12:52:56;101458.03;;;23.50;67.95
49813;BME280;35706;52.100;5.056;2022-08-19T12:55:21;101458.88;;;23.44;67.79
49813;BME280;35706;52.100;5.056;2022-08-19T12:57:47;101458.03;;;23.43;67.86
49813;BME280;35706;52.100;5.056;2022-08-19T13:00:16;101455.75;;;23.47;67.41
49813;BME280;35706;52.100;5.056;2022-08-19T13:02:44;101459.06;;;23.42;67.96
49813;BME280;35706;52.100;5.056;2022-08-19T13:05:14;101450.63;;;23.45;67.69
49813;BME280;35706;52.100;5.056;2022-08-19T13:07:41;101448.94;;;23.51;67.23
49813;BME280;35706;52.100;5.056;2022-08-19T13:10:13;101447.69;;;23.53;67.59
49813;BME280;35706;52.100;5.056;2022-08-19T13:12:40;101448.75;;;23.46;67.23
49813;BME280;35706;52.100;5.056;2022-08-19T13:15:06;101450.19;;;23.48;67.06
49813;BME280;35706;52.100;5.056;2022-08-19T13:17:34;101437.19;;;23.52;66.30
49813;BME280;35706;52.100;5.056;2022-08-19T13:19:59;101445.66;;;23.42;66.53
49813;BME280;35706;52.100;5.056;2022-08-19T13:22:25;101448.94;;;23.44;67.20
49813;BME280;35706;52.100;5.056;2022-08-19T13:24:50;101451.84;;;23.36;67.55
49813;BME280;35706;52.100;5.056;2022-08-19T13:27:15;101453.91;;;23.34;67.80
49813;BME280;35706;52.100;5.056;2022-08-19T13:29:41;101448.97;;;23.31;68.09
49813;BME280;35706;52.100;5.056;2022-08-19T13:32:25;101446.28;;;23.44;68.39
49813;BME280;35706;52.100;5.056;2022-08-19T13:35:09;101444.41;;;23.51;67.88
49813;BME280;35706;52.100;5.056;2022-08-19T13:37:34;101451.00;;;23.42;66.68
49813;BME280;35706;52.100;5.056;2022-08-19T13:40:17;101453.50;;;23.37;67.40
49813;BME280;35706;52.100;5.056;2022-08-19T13:42:45;101459.25;;;23.41;68.02